KLYH/LYH METAR and TAF weather

Enter ICAO airport designator
Station Type Date Time Source
KLYH METAR 2021/01/27 12:54 UTC NOAA

KLYH 271254Z VRB04KT 10SM CLR 06/02 A3005 RMK AO2 SLP178 T00560017


Station Type Date Time Source
KLYH Decoded METAR 2021/01/27 12:54 UTC NOAA

LYNCHBURG REGIONAL AIRPORT, VA, United States (KLYH) 37-19N 079-12W 295M
Jan 27, 2021 - 07:54 AM EST / 2021.01.27 1254 UTC
Wind: Variable at 5 MPH (4 KT):0
Visibility: 10 mile(s):0
Sky conditions: clear
Temperature: 42.1 F (5.6 C)
Dew Point: 35.1 F (1.7 C)
Relative Humidity: 75%
Pressure (altimeter): 30.05 in. Hg (1017 hPa)
ob: KLYH 271254Z VRB04KT 10SM CLR 06/02 A3005 RMK AO2 SLP178 T00560017
cycle: 13

Station Type Date Time Source
KLYH TAF 2021/01/27 12:40 UTC NOAA

TAF KLYH 271138Z 2712/2812 22005KT P6SM SCT180
FM271500 35006KT P6SM OVC200
FM272000 04004KT P6SM OVC028
FM280500 04009KT 6SM -SN OVC009
FM280900 34007KT 6SM -SN BR OVC010

Example: see airport list